Humidity-temperature Sensor

Selected Measurement Type: Relative Humidity

 
Relative Humidity [%]     6 entries per hour
Showing data from 5/31/2017 (00:00:00 Z) to 5/28/2017 (00:01:00 Z)
Previous Next [ Day | 3-Days | 7-Days ]
First Last
Prev [ Day | 3-Days | 7-Days ] Next
First Last

Start Time:     :
End Time:     :     
Time (in GMT) :00 :50 :40 :30 :20 :10
Previous Next [ Day | 3-Days | 7-Days ]
First Last
Prev [ Day | 3-Days | 7-Days ] Next
First Last


123 => good data
MM => data is determined as missing
-- => data not received/configured
Back to Top Back to Top
5/31/2017 00:00 to 23:10 -- -- -- -- -- --
5/30/2017 23:00 to 22:10 -- -- -- -- -- --
5/30/2017 22:00 to 21:10 -- -- -- -- -- --
5/30/2017 21:00 to 20:10 -- -- -- -- -- --
5/30/2017 20:00 to 19:10 -- -- -- -- -- --
5/30/2017 19:00 to 18:10 -- -- -- -- -- --
5/30/2017 18:00 to 17:10 -- -- -- -- -- --
5/30/2017 17:00 to 16:10 -- -- -- -- -- --
5/30/2017 16:00 to 15:10 -- -- -- -- -- --
5/30/2017 15:00 to 14:10 -- -- -- -- -- --
5/30/2017 14:00 to 13:10 -- -- -- -- -- --
5/30/2017 13:00 to 12:10 -- -- -- -- -- --
5/30/2017 12:00 to 11:10 -- -- -- -- -- --
5/30/2017 11:00 to 10:10 -- -- -- -- -- --
5/30/2017 10:00 to 9:10 -- -- -- -- -- --
5/30/2017 09:00 to 8:10 -- -- -- -- -- --
5/30/2017 08:00 to 7:10 -- -- -- -- -- --
5/30/2017 07:00 to 6:10 -- -- -- -- -- --
5/30/2017 06:00 to 5:10 -- -- -- -- -- --
5/30/2017 05:00 to 4:10 83.65 83.13 83.69 83.75 82.43 83.33
5/30/2017 04:00 to 3:10 83.77 83.53 84.17 84.38 84.44 83.87
5/30/2017 03:00 to 2:10 84.34 84.07 84.72 84.32 82.73 83.59
5/30/2017 02:00 to 1:10 84.94 84.01 84.54 83.23 82.89 83.47
5/30/2017 01:00 to 0:10 82.91 83.09 82.61 83.17 83.03 83.99
5/30/2017 00:00 to 23:10 83.87 83.65 84.36 83.43 83.57 83.83
5/29/2017 23:00 to 22:10 83.85 83.85 83.25 84.50 84.01 83.55
5/29/2017 22:00 to 21:10 83.73 83.59 84.28 84.98 84.32 83.15
5/29/2017 21:00 to 20:10 83.93 83.39 83.49 82.81 83.41 83.61
5/29/2017 20:00 to 19:10 84.05 84.11 82.71 83.79 82.41 83.13
5/29/2017 19:00 to 18:10 83.77 84.28 83.63 84.78 84.62 83.57
5/29/2017 18:00 to 17:10 84.42 83.81 84.48 84.40 84.17 82.97
5/29/2017 17:00 to 16:10 82.81 82.63 84.96 83.85 83.39 83.73
5/29/2017 16:00 to 15:10 83.81 84.01 84.05 83.31 83.73 84.88
5/29/2017 15:00 to 14:10 83.51 82.47 86.30 86.52 86.22 85.84
5/29/2017 14:00 to 13:10 85.58 85.08 86.34 85.66 85.76 84.74
5/29/2017 13:00 to 12:10 84.46 85.82 85.80 87.01 86.26 86.40
5/29/2017 12:00 to 11:10 86.46 85.86 86.28 86.54 86.48 86.46
5/29/2017 11:00 to 10:10 -- -- -- -- -- --
5/29/2017 10:00 to 9:10 86.08 86.48 88.11 87.27 86.93 87.15
5/29/2017 09:00 to 8:10 86.16 87.17 87.11 87.29 87.51 88.21
5/29/2017 08:00 to 7:10 88.05 86.91 86.48 87.29 88.13 87.47
5/29/2017 07:00 to 6:10 87.37 87.21 87.89 87.51 86.83 87.11
5/29/2017 06:00 to 5:10 87.47 87.39 87.29 86.79 87.01 87.31
5/29/2017 05:00 to 4:10 87.31 87.73 88.13 89.28 88.41 87.65
5/29/2017 04:00 to 3:10 86.85 86.38 86.81 86.30 85.74 86.10
5/29/2017 03:00 to 2:10 85.36 86.44 86.08 84.82 85.20 85.00
5/29/2017 02:00 to 1:10 83.71 84.48 83.69 83.87 85.60 85.14
5/29/2017 01:00 to 0:10 85.38 84.80 85.30 85.94 86.32 84.72
5/29/2017 00:00 to 23:10 85.50 86.50 86.58 85.68 85.64 85.36
5/28/2017 23:00 to 22:10 85.04 84.82 84.17 86.18 86.18 85.94
5/28/2017 22:00 to 21:10 85.24 84.96 84.60 83.71 83.91 85.08
5/28/2017 21:00 to 20:10 86.44 86.24 86.04 86.60 85.18 85.60
5/28/2017 20:00 to 19:10 86.22 86.93 86.52 86.14 85.74 85.52
5/28/2017 19:00 to 18:10 85.64 85.22 84.62 84.98 85.58 85.16
5/28/2017 18:00 to 17:10 85.06 84.23 84.07 84.48 85.18 85.66
5/28/2017 17:00 to 16:10 85.44 85.64 85.62 85.36 84.74 84.28
5/28/2017 16:00 to 15:10 84.78 82.93 84.62 85.80 85.80 85.02
5/28/2017 15:00 to 14:10 86.10 85.28 86.12 86.22 87.49 86.56
5/28/2017 14:00 to 13:10 87.47 87.67 87.01 87.11 87.01 87.05
5/28/2017 13:00 to 12:10 86.97 87.95 87.23 87.53 86.38 87.67
5/28/2017 12:00 to 11:10 86.54 87.01 87.11 87.55 87.95 87.69
5/28/2017 11:00 to 10:10 86.69 87.35 86.93 86.58 85.86 85.80
5/28/2017 10:00 to 9:10 85.64 85.02 85.86 87.25 87.55 87.29
5/28/2017 09:00 to 8:10 87.95 89.03 89.56 89.78 89.22 89.07
5/28/2017 08:00 to 7:10 88.51 88.61 88.51 88.25 87.61 87.79
5/28/2017 07:00 to 6:10 88.41 87.43 88.25 88.41 88.53 87.75
5/28/2017 06:00 to 5:10 88.11 88.87 88.67 88.29 87.97 87.81
5/28/2017 05:00 to 4:10 87.85 87.99 88.43 87.55 86.58 86.40
5/28/2017 04:00 to 3:10 87.55 87.77 87.67 87.75 86.81 86.38
5/28/2017 03:00 to 2:10 87.11 86.52 86.64 86.75 86.18 86.32
5/28/2017 02:00 to 1:10 86.91 86.62 86.87 84.88 84.34 84.68
5/28/2017 01:00 to 0:10 84.58 84.52 84.90 86.62 85.14 85.86